sensor_id;sensor_type;location;lat;lon;timestamp;temperature;humidity
25108;DHT22;13090;53.422;7.670;2023-08-06T00:01:08;16.20;90.60
25108;DHT22;13090;53.422;7.670;2023-08-06T00:06:29;16.10;90.10
25108;DHT22;13090;53.422;7.670;2023-08-06T00:11:51;16.10;89.70
25108;DHT22;13090;53.422;7.670;2023-08-06T00:17:13;16.10;89.40
25108;DHT22;13090;53.422;7.670;2023-08-06T00:22:35;16.10;89.50
25108;DHT22;13090;53.422;7.670;2023-08-06T00:27:58;16.00;89.60
25108;DHT22;13090;53.422;7.670;2023-08-06T00:33:19;15.80;89.50
25108;DHT22;13090;53.422;7.670;2023-08-06T00:38:40;15.80;88.80
25108;DHT22;13090;53.422;7.670;2023-08-06T00:44:02;15.80;88.70
25108;DHT22;13090;53.422;7.670;2023-08-06T00:49:23;15.80;88.70
25108;DHT22;13090;53.422;7.670;2023-08-06T00:54:44;15.90;88.30
25108;DHT22;13090;53.422;7.670;2023-08-06T01:00:08;16.00;88.10
25108;DHT22;13090;53.422;7.670;2023-08-06T01:05:29;16.00;88.20
25108;DHT22;13090;53.422;7.670;2023-08-06T01:11:00;16.10;87.90
25108;DHT22;13090;53.422;7.670;2023-08-06T01:16:24;16.10;88.20
25108;DHT22;13090;53.422;7.670;2023-08-06T01:21:47;16.10;87.70
25108;DHT22;13090;53.422;7.670;2023-08-06T01:27:14;16.10;87.70
25108;DHT22;13090;53.422;7.670;2023-08-06T01:32:38;16.20;88.80
25108;DHT22;13090;53.422;7.670;2023-08-06T01:38:03;16.10;88.40
25108;DHT22;13090;53.422;7.670;2023-08-06T01:43:23;16.00;88.40
25108;DHT22;13090;53.422;7.670;2023-08-06T01:48:44;16.00;88.20
25108;DHT22;13090;53.422;7.670;2023-08-06T01:54:07;16.00;88.20
25108;DHT22;13090;53.422;7.670;2023-08-06T01:59:27;16.00;89.30
25108;DHT22;13090;53.422;7.670;2023-08-06T02:04:48;16.00;89.00
25108;DHT22;13090;53.422;7.670;2023-08-06T02:10:11;16.00;89.00
25108;DHT22;13090;53.422;7.670;2023-08-06T02:15:31;16.10;89.10
25108;DHT22;13090;53.422;7.670;2023-08-06T02:20:56;16.20;88.90
25108;DHT22;13090;53.422;7.670;2023-08-06T02:26:18;16.20;89.10
25108;DHT22;13090;53.422;7.670;2023-08-06T02:31:39;16.40;88.80
25108;DHT22;13090;53.422;7.670;2023-08-06T02:37:00;16.50;88.40
25108;DHT22;13090;53.422;7.670;2023-08-06T02:42:22;16.60;88.20
25108;DHT22;13090;53.422;7.670;2023-08-06T02:47:42;16.70;88.00
25108;DHT22;13090;53.422;7.670;2023-08-06T02:53:03;16.80;87.80
25108;DHT22;13090;53.422;7.670;2023-08-06T02:58:25;16.80;87.70
25108;DHT22;13090;53.422;7.670;2023-08-06T03:03:46;16.90;87.70
25108;DHT22;13090;53.422;7.670;2023-08-06T03:09:07;16.80;87.30
25108;DHT22;13090;53.422;7.670;2023-08-06T03:14:29;16.80;87.20
25108;DHT22;13090;53.422;7.670;2023-08-06T03:19:50;16.80;87.60
25108;DHT22;13090;53.422;7.670;2023-08-06T03:25:11;16.70;87.20
25108;DHT22;13090;53.422;7.670;2023-08-06T03:30:33;16.70;87.50
25108;DHT22;13090;53.422;7.670;2023-08-06T03:35:54;16.80;87.80
25108;DHT22;13090;53.422;7.670;2023-08-06T03:41:15;16.80;87.50
25108;DHT22;13090;53.422;7.670;2023-08-06T03:46:37;16.80;88.10
25108;DHT22;13090;53.422;7.670;2023-08-06T03:51:58;16.80;87.40
25108;DHT22;13090;53.422;7.670;2023-08-06T03:57:19;16.80;87.20
25108;DHT22;13090;53.422;7.670;2023-08-06T04:02:41;16.70;87.20
25108;DHT22;13090;53.422;7.670;2023-08-06T04:08:02;16.70;87.50
25108;DHT22;13090;53.422;7.670;2023-08-06T04:13:23;16.70;87.60
25108;DHT22;13090;53.422;7.670;2023-08-06T04:18:45;16.70;87.80
25108;DHT22;13090;53.422;7.670;2023-08-06T04:24:06;16.80;88.00
25108;DHT22;13090;53.422;7.670;2023-08-06T04:29:27;16.90;88.00
25108;DHT22;13090;53.422;7.670;2023-08-06T04:34:49;16.90;87.90
25108;DHT22;13090;53.422;7.670;2023-08-06T04:40:10;17.00;88.00
25108;DHT22;13090;53.422;7.670;2023-08-06T04:45:31;17.00;87.70
25108;DHT22;13090;53.422;7.670;2023-08-06T04:50:54;17.10;87.60
25108;DHT22;13090;53.422;7.670;2023-08-06T04:56:15;17.10;87.60
25108;DHT22;13090;53.422;7.670;2023-08-06T05:01:36;17.10;87.50
25108;DHT22;13090;53.422;7.670;2023-08-06T05:06:58;17.10;87.60
25108;DHT22;13090;53.422;7.670;2023-08-06T05:12:19;17.20;87.60
25108;DHT22;13090;53.422;7.670;2023-08-06T05:17:40;17.10;88.70
25108;DHT22;13090;53.422;7.670;2023-08-06T05:23:02;17.00;88.60
25108;DHT22;13090;53.422;7.670;2023-08-06T05:28:23;16.90;88.80
25108;DHT22;13090;53.422;7.670;2023-08-06T05:33:44;17.00;89.30
25108;DHT22;13090;53.422;7.670;2023-08-06T05:39:06;16.90;90.10
25108;DHT22;13090;53.422;7.670;2023-08-06T05:44:27;16.80;90.60
25108;DHT22;13090;53.422;7.670;2023-08-06T05:49:47;16.90;90.40
25108;DHT22;13090;53.422;7.670;2023-08-06T05:55:10;17.00;90.20
25108;DHT22;13090;53.422;7.670;2023-08-06T06:00:31;17.10;90.20
25108;DHT22;13090;53.422;7.670;2023-08-06T06:05:52;17.20;90.10
25108;DHT22;13090;53.422;7.670;2023-08-06T06:11:14;17.30;90.00
25108;DHT22;13090;53.422;7.670;2023-08-06T06:16:35;17.40;89.70
25108;DHT22;13090;53.422;7.670;2023-08-06T06:21:56;17.40;89.80
25108;DHT22;13090;53.422;7.670;2023-08-06T06:27:18;17.50;89.60
25108;DHT22;13090;53.422;7.670;2023-08-06T06:32:39;17.50;89.90
25108;DHT22;13090;53.422;7.670;2023-08-06T06:38:00;17.60;90.10
25108;DHT22;13090;53.422;7.670;2023-08-06T06:43:22;17.70;90.10
25108;DHT22;13090;53.422;7.670;2023-08-06T06:48:43;17.80;90.10
25108;DHT22;13090;53.422;7.670;2023-08-06T06:54:04;17.90;90.10
25108;DHT22;13090;53.422;7.670;2023-08-06T06:59:26;18.00;90.20
25108;DHT22;13090;53.422;7.670;2023-08-06T07:04:47;18.20;90.30
25108;DHT22;13090;53.422;7.670;2023-08-06T07:10:08;18.30;90.20
25108;DHT22;13090;53.422;7.670;2023-08-06T07:15:31;18.60;90.20
25108;DHT22;13090;53.422;7.670;2023-08-06T07:20:53;19.00;90.00
25108;DHT22;13090;53.422;7.670;2023-08-06T07:26:14;19.30;89.70
25108;DHT22;13090;53.422;7.670;2023-08-06T07:31:37;19.70;89.40
25108;DHT22;13090;53.422;7.670;2023-08-06T07:36:58;20.10;89.40
25108;DHT22;13090;53.422;7.670;2023-08-06T07:42:20;20.50;87.80
25108;DHT22;13090;53.422;7.670;2023-08-06T07:47:42;20.70;86.50
25108;DHT22;13090;53.422;7.670;2023-08-06T07:53:03;20.90;87.50
25108;DHT22;13090;53.422;7.670;2023-08-06T07:58:24;21.20;86.90
25108;DHT22;13090;53.422;7.670;2023-08-06T08:03:46;21.70;87.50
25108;DHT22;13090;53.422;7.670;2023-08-06T08:09:07;22.70;88.40
25108;DHT22;13090;53.422;7.670;2023-08-06T08:14:28;23.80;86.60
25108;DHT22;13090;53.422;7.670;2023-08-06T08:19:50;24.60;83.30
25108;DHT22;13090;53.422;7.670;2023-08-06T08:25:11;25.20;80.70
25108;DHT22;13090;53.422;7.670;2023-08-06T08:30:32;25.50;75.80
25108;DHT22;13090;53.422;7.670;2023-08-06T08:35:54;25.90;76.40
25108;DHT22;13090;53.422;7.670;2023-08-06T08:41:15;26.50;77.30
25108;DHT22;13090;53.422;7.670;2023-08-06T08:46:38;26.80;72.80
25108;DHT22;13090;53.422;7.670;2023-08-06T08:52:02;26.90;74.80
25108;DHT22;13090;53.422;7.670;2023-08-06T08:57:24;27.70;75.30
25108;DHT22;13090;53.422;7.670;2023-08-06T09:02:45;28.70;75.00
25108;DHT22;13090;53.422;7.670;2023-08-06T09:08:09;29.60;69.40
25108;DHT22;13090;53.422;7.670;2023-08-06T09:13:31;30.00;59.70
25108;DHT22;13090;53.422;7.670;2023-08-06T09:18:52;29.90;64.40
25108;DHT22;13090;53.422;7.670;2023-08-06T09:24:15;30.10;64.80
25108;DHT22;13090;53.422;7.670;2023-08-06T09:29:40;30.40;64.60
25108;DHT22;13090;53.422;7.670;2023-08-06T09:35:01;30.80;61.80
25108;DHT22;13090;53.422;7.670;2023-08-06T09:40:29;31.10;62.30
25108;DHT22;13090;53.422;7.670;2023-08-06T09:45:49;31.20;58.50
25108;DHT22;13090;53.422;7.670;2023-08-06T09:51:11;31.30;60.10
25108;DHT22;13090;53.422;7.670;2023-08-06T09:56:35;31.40;58.60
25108;DHT22;13090;53.422;7.670;2023-08-06T10:01:56;31.50;58.20
25108;DHT22;13090;53.422;7.670;2023-08-06T10:07:17;31.60;58.60
25108;DHT22;13090;53.422;7.670;2023-08-06T10:12:45;31.80;57.50
25108;DHT22;13090;53.422;7.670;2023-08-06T10:18:07;31.90;55.70
25108;DHT22;13090;53.422;7.670;2023-08-06T10:23:36;31.90;56.20
25108;DHT22;13090;53.422;7.670;2023-08-06T10:28:58;31.90;54.60
25108;DHT22;13090;53.422;7.670;2023-08-06T10:34:19;31.90;54.90
25108;DHT22;13090;53.422;7.670;2023-08-06T10:39:48;31.90;51.50
25108;DHT22;13090;53.422;7.670;2023-08-06T10:45:14;31.60;52.40
25108;DHT22;13090;53.422;7.670;2023-08-06T10:50:35;31.50;53.00
25108;DHT22;13090;53.422;7.670;2023-08-06T10:55:57;31.60;51.20
25108;DHT22;13090;53.422;7.670;2023-08-06T11:01:19;31.50;53.60
25108;DHT22;13090;53.422;7.670;2023-08-06T11:06:42;31.60;52.90
25108;DHT22;13090;53.422;7.670;2023-08-06T11:12:09;31.60;52.70
25108;DHT22;13090;53.422;7.670;2023-08-06T11:17:32;31.60;51.90
25108;DHT22;13090;53.422;7.670;2023-08-06T11:22:54;31.80;52.00
25108;DHT22;13090;53.422;7.670;2023-08-06T11:28:15;31.90;51.30
25108;DHT22;13090;53.422;7.670;2023-08-06T11:33:37;32.00;51.90
25108;DHT22;13090;53.422;7.670;2023-08-06T11:38:58;32.20;51.30
25108;DHT22;13090;53.422;7.670;2023-08-06T11:44:20;32.30;48.30
25108;DHT22;13090;53.422;7.670;2023-08-06T11:49:44;32.00;50.80
25108;DHT22;13090;53.422;7.670;2023-08-06T11:55:07;31.90;50.30
25108;DHT22;13090;53.422;7.670;2023-08-06T12:00:29;31.80;48.60
25108;DHT22;13090;53.422;7.670;2023-08-06T12:05:54;31.40;50.50
25108;DHT22;13090;53.422;7.670;2023-08-06T12:11:14;31.40;51.00
25108;DHT22;13090;53.422;7.670;2023-08-06T12:16:36;31.60;52.70
25108;DHT22;13090;53.422;7.670;2023-08-06T12:21:58;32.00;52.10
25108;DHT22;13090;53.422;7.670;2023-08-06T12:27:19;32.30;51.10
25108;DHT22;13090;53.422;7.670;2023-08-06T12:32:40;32.60;50.50
25108;DHT22;13090;53.422;7.670;2023-08-06T12:38:03;32.60;49.60
25108;DHT22;13090;53.422;7.670;2023-08-06T12:43:24;32.40;49.00
25108;DHT22;13090;53.422;7.670;2023-08-06T12:48:45;31.90;48.90
25108;DHT22;13090;53.422;7.670;2023-08-06T12:54:07;31.70;49.60
25108;DHT22;13090;53.422;7.670;2023-08-06T12:59:28;31.50;49.20
25108;DHT22;13090;53.422;7.670;2023-08-06T13:04:49;31.50;49.30
25108;DHT22;13090;53.422;7.670;2023-08-06T13:10:11;31.40;49.50
25108;DHT22;13090;53.422;7.670;2023-08-06T13:15:32;31.30;49.60
25108;DHT22;13090;53.422;7.670;2023-08-06T13:20:53;31.20;49.70
25108;DHT22;13090;53.422;7.670;2023-08-06T13:26:15;31.00;49.30
25108;DHT22;13090;53.422;7.670;2023-08-06T13:31:37;30.90;49.20
25108;DHT22;13090;53.422;7.670;2023-08-06T13:36:58;30.80;49.60
25108;DHT22;13090;53.422;7.670;2023-08-06T13:42:20;30.70;49.60
25108;DHT22;13090;53.422;7.670;2023-08-06T13:47:41;30.60;49.70
25108;DHT22;13090;53.422;7.670;2023-08-06T13:53:02;30.60;50.00
25108;DHT22;13090;53.422;7.670;2023-08-06T13:58:25;30.50;49.90
25108;DHT22;13090;53.422;7.670;2023-08-06T14:03:45;30.50;49.60
25108;DHT22;13090;53.422;7.670;2023-08-06T14:09:07;30.40;49.80
25108;DHT22;13090;53.422;7.670;2023-08-06T14:14:30;30.40;49.50
25108;DHT22;13090;53.422;7.670;2023-08-06T14:19:51;30.30;49.40
25108;DHT22;13090;53.422;7.670;2023-08-06T14:25:12;30.30;49.50
25108;DHT22;13090;53.422;7.670;2023-08-06T14:30:35;30.20;49.60
25108;DHT22;13090;53.422;7.670;2023-08-06T14:35:56;30.00;49.40
25108;DHT22;13090;53.422;7.670;2023-08-06T14:41:17;29.80;49.60
25108;DHT22;13090;53.422;7.670;2023-08-06T14:46:39;29.70;49.80
25108;DHT22;13090;53.422;7.670;2023-08-06T14:52:00;29.50;50.00
25108;DHT22;13090;53.422;7.670;2023-08-06T14:57:21;29.40;50.30
25108;DHT22;13090;53.422;7.670;2023-08-06T15:02:44;29.30;50.20
25108;DHT22;13090;53.422;7.670;2023-08-06T15:08:05;29.00;50.30
25108;DHT22;13090;53.422;7.670;2023-08-06T15:13:27;28.80;50.60
25108;DHT22;13090;53.422;7.670;2023-08-06T15:18:49;28.60;50.60
25108;DHT22;13090;53.422;7.670;2023-08-06T15:24:09;28.40;51.10
25108;DHT22;13090;53.422;7.670;2023-08-06T15:29:30;28.40;51.20
25108;DHT22;13090;53.422;7.670;2023-08-06T15:34:53;28.20;50.90
25108;DHT22;13090;53.422;7.670;2023-08-06T15:40:14;28.00;51.10
25108;DHT22;13090;53.422;7.670;2023-08-06T15:45:34;27.80;51.60
25108;DHT22;13090;53.422;7.670;2023-08-06T15:50:57;27.80;52.20
25108;DHT22;13090;53.422;7.670;2023-08-06T15:56:18;27.90;52.20
25108;DHT22;13090;53.422;7.670;2023-08-06T16:01:39;28.00;52.50
25108;DHT22;13090;53.422;7.670;2023-08-06T16:07:01;28.10;52.40
25108;DHT22;13090;53.422;7.670;2023-08-06T16:12:22;28.10;52.50
25108;DHT22;13090;53.422;7.670;2023-08-06T16:17:43;28.20;52.40
25108;DHT22;13090;53.422;7.670;2023-08-06T16:23:05;28.10;52.20
25108;DHT22;13090;53.422;7.670;2023-08-06T16:28:26;28.10;52.50
25108;DHT22;13090;53.422;7.670;2023-08-06T16:33:47;28.00;52.60
25108;DHT22;13090;53.422;7.670;2023-08-06T16:39:09;27.90;52.70
25108;DHT22;13090;53.422;7.670;2023-08-06T16:44:30;27.80;52.90
25108;DHT22;13090;53.422;7.670;2023-08-06T16:49:51;27.60;53.10
25108;DHT22;13090;53.422;7.670;2023-08-06T16:55:14;27.40;53.40
25108;DHT22;13090;53.422;7.670;2023-08-06T17:00:35;27.10;53.80
25108;DHT22;13090;53.422;7.670;2023-08-06T17:05:56;26.90;53.90
25108;DHT22;13090;53.422;7.670;2023-08-06T17:11:18;26.80;54.10
25108;DHT22;13090;53.422;7.670;2023-08-06T17:16:39;26.60;54.50
25108;DHT22;13090;53.422;7.670;2023-08-06T17:22:00;26.50;54.70
25108;DHT22;13090;53.422;7.670;2023-08-06T17:27:22;26.30;55.00
25108;DHT22;13090;53.422;7.670;2023-08-06T17:32:43;26.10;55.10
25108;DHT22;13090;53.422;7.670;2023-08-06T17:38:03;25.90;55.30
25108;DHT22;13090;53.422;7.670;2023-08-06T17:43:26;25.80;55.60
25108;DHT22;13090;53.422;7.670;2023-08-06T17:48:46;25.60;56.00
25108;DHT22;13090;53.422;7.670;2023-08-06T17:54:07;25.40;56.20
25108;DHT22;13090;53.422;7.670;2023-08-06T17:59:30;25.30;56.50
25108;DHT22;13090;53.422;7.670;2023-08-06T18:04:51;25.10;57.00
25108;DHT22;13090;53.422;7.670;2023-08-06T18:10:12;25.00;57.30
25108;DHT22;13090;53.422;7.670;2023-08-06T18:15:35;25.00;57.60
25108;DHT22;13090;53.422;7.670;2023-08-06T18:20:55;24.80;57.80
25108;DHT22;13090;53.422;7.670;2023-08-06T18:26:16;24.80;57.70
25108;DHT22;13090;53.422;7.670;2023-08-06T18:31:39;24.70;57.90
25108;DHT22;13090;53.422;7.670;2023-08-06T18:36:59;24.60;58.20
25108;DHT22;13090;53.422;7.670;2023-08-06T18:42:20;24.40;58.10
25108;DHT22;13090;53.422;7.670;2023-08-06T18:47:43;24.40;58.20
25108;DHT22;13090;53.422;7.670;2023-08-06T18:53:05;24.30;58.90
25108;DHT22;13090;53.422;7.670;2023-08-06T18:58:25;24.20;58.30
25108;DHT22;13090;53.422;7.670;2023-08-06T19:03:48;24.00;58.50
25108;DHT22;13090;53.422;7.670;2023-08-06T19:09:09;23.90;58.90
25108;DHT22;13090;53.422;7.670;2023-08-06T19:14:30;23.70;58.90
25108;DHT22;13090;53.422;7.670;2023-08-06T19:19:53;23.40;59.20
25108;DHT22;13090;53.422;7.670;2023-08-06T19:25:14;23.20;59.80
25108;DHT22;13090;53.422;7.670;2023-08-06T19:30:36;23.00;60.30
25108;DHT22;13090;53.422;7.670;2023-08-06T19:35:58;22.70;61.20
25108;DHT22;13090;53.422;7.670;2023-08-06T19:41:19;22.40;62.90
25108;DHT22;13090;53.422;7.670;2023-08-06T19:46:42;22.20;62.30
25108;DHT22;13090;53.422;7.670;2023-08-06T19:52:05;22.00;63.10
25108;DHT22;13090;53.422;7.670;2023-08-06T19:57:26;21.90;64.10
25108;DHT22;13090;53.422;7.670;2023-08-06T20:02:47;21.80;64.40
25108;DHT22;13090;53.422;7.670;2023-08-06T20:08:09;21.70;65.00
25108;DHT22;13090;53.422;7.670;2023-08-06T20:13:30;21.50;65.60
25108;DHT22;13090;53.422;7.670;2023-08-06T20:18:51;21.40;65.80
25108;DHT22;13090;53.422;7.670;2023-08-06T20:24:14;21.30;66.00
25108;DHT22;13090;53.422;7.670;2023-08-06T20:29:35;21.20;66.50
25108;DHT22;13090;53.422;7.670;2023-08-06T20:34:56;21.00;66.50
25108;DHT22;13090;53.422;7.670;2023-08-06T20:40:19;20.90;67.00
25108;DHT22;13090;53.422;7.670;2023-08-06T20:45:40;20.80;67.60
25108;DHT22;13090;53.422;7.670;2023-08-06T20:51:01;20.60;67.80
25108;DHT22;13090;53.422;7.670;2023-08-06T20:56:23;20.50;68.30
25108;DHT22;13090;53.422;7.670;2023-08-06T21:01:44;20.40;68.80
25108;DHT22;13090;53.422;7.670;2023-08-06T21:07:05;20.30;68.90
25108;DHT22;13090;53.422;7.670;2023-08-06T21:12:28;20.20;69.10
25108;DHT22;13090;53.422;7.670;2023-08-06T21:17:48;20.10;69.40
25108;DHT22;13090;53.422;7.670;2023-08-06T21:23:09;20.00;69.50
25108;DHT22;13090;53.422;7.670;2023-08-06T21:28:34;19.90;69.70
25108;DHT22;13090;53.422;7.670;2023-08-06T21:33:54;19.90;70.40
25108;DHT22;13090;53.422;7.670;2023-08-06T21:39:15;19.80;70.30
25108;DHT22;13090;53.422;7.670;2023-08-06T21:44:38;19.70;70.60
25108;DHT22;13090;53.422;7.670;2023-08-06T21:49:58;19.70;71.20
25108;DHT22;13090;53.422;7.670;2023-08-06T21:55:19;19.60;71.20
25108;DHT22;13090;53.422;7.670;2023-08-06T22:00:42;19.60;71.50
25108;DHT22;13090;53.422;7.670;2023-08-06T22:06:03;19.60;72.10
25108;DHT22;13090;53.422;7.670;2023-08-06T22:11:24;19.60;72.10
25108;DHT22;13090;53.422;7.670;2023-08-06T22:16:47;19.60;72.10
25108;DHT22;13090;53.422;7.670;2023-08-06T22:22:07;19.60;72.50
25108;DHT22;13090;53.422;7.670;2023-08-06T22:27:28;19.50;72.40
25108;DHT22;13090;53.422;7.670;2023-08-06T22:32:50;19.50;72.90
25108;DHT22;13090;53.422;7.670;2023-08-06T22:38:11;19.50;73.40
25108;DHT22;13090;53.422;7.670;2023-08-06T22:43:32;19.50;73.40
25108;DHT22;13090;53.422;7.670;2023-08-06T22:48:55;19.50;73.50
25108;DHT22;13090;53.422;7.670;2023-08-06T22:54:16;19.50;73.90
25108;DHT22;13090;53.422;7.670;2023-08-06T22:59:36;19.50;74.00
25108;DHT22;13090;53.422;7.670;2023-08-06T23:04:59;19.50;74.20
25108;DHT22;13090;53.422;7.670;2023-08-06T23:10:20;19.50;74.80
25108;DHT22;13090;53.422;7.670;2023-08-06T23:15:43;19.50;74.80
25108;DHT22;13090;53.422;7.670;2023-08-06T23:21:06;19.40;75.00
25108;DHT22;13090;53.422;7.670;2023-08-06T23:26:27;19.40;75.20
25108;DHT22;13090;53.422;7.670;2023-08-06T23:31:48;19.50;75.30
25108;DHT22;13090;53.422;7.670;2023-08-06T23:37:10;19.40;75.40
25108;DHT22;13090;53.422;7.670;2023-08-06T23:42:31;19.40;75.80
25108;DHT22;13090;53.422;7.670;2023-08-06T23:47:52;19.40;76.00
25108;DHT22;13090;53.422;7.670;2023-08-06T23:53:14;19.40;76.20
25108;DHT22;13090;53.422;7.670;2023-08-06T23:58:35;19.40;76.70
